createdAt,value
2019-05-01T00:02:00.512Z,6.30
2019-05-01T00:04:28.840Z,6.50
2019-05-01T00:06:56.820Z,6.70
2019-05-01T00:09:24.031Z,7.40
2019-05-01T00:11:50.092Z,7.03
2019-05-01T00:14:16.587Z,6.23
2019-05-01T00:16:43.048Z,6.60
2019-05-01T00:19:09.095Z,6.40
2019-05-01T00:21:35.538Z,6.23
2019-05-01T00:24:01.591Z,6.30
2019-05-01T00:26:27.671Z,6.37
2019-05-01T00:28:53.720Z,5.80
2019-05-01T00:31:19.852Z,6.90
2019-05-01T00:33:46.267Z,6.90
2019-05-01T00:36:12.343Z,6.30
2019-05-01T00:38:38.751Z,6.17
2019-05-01T00:41:04.901Z,5.87
2019-05-01T00:43:30.950Z,5.30
2019-05-01T00:45:56.999Z,6.23
2019-05-01T00:48:23.452Z,5.60
2019-05-01T00:50:49.576Z,5.97
2019-05-01T00:53:15.625Z,5.30
2019-05-01T00:56:00.108Z,5.60
2019-05-01T00:58:28.100Z,5.93
2019-05-01T01:01:12.793Z,6.27
2019-05-01T01:03:40.793Z,6.30
2019-05-01T01:06:07.143Z,6.40
2019-05-01T01:08:33.528Z,6.27
2019-05-01T01:10:59.951Z,5.80
2019-05-01T01:13:26.036Z,5.77
2019-05-01T01:15:52.079Z,5.30
2019-05-01T01:18:18.168Z,6.10
2019-05-01T01:20:44.552Z,6.80
2019-05-01T01:23:11.533Z,5.10
2019-05-01T01:25:39.160Z,5.83
2019-05-01T01:28:05.207Z,6.00
2019-05-01T01:30:32.660Z,5.47
2019-05-01T01:32:58.973Z,6.07
2019-05-01T01:35:25.056Z,5.37
2019-05-01T01:37:51.428Z,5.70
2019-05-01T01:40:18.472Z,5.30
2019-05-01T01:42:47.771Z,6.20
2019-05-01T01:45:28.434Z,6.17
2019-05-01T01:48:14.720Z,5.90
2019-05-01T01:50:43.074Z,5.73
2019-05-01T01:53:12.586Z,5.30
2019-05-01T01:55:38.651Z,6.10
2019-05-01T01:58:07.735Z,5.60
2019-05-01T02:00:53.288Z,6.10
2019-05-01T02:03:20.979Z,5.60
2019-05-01T02:05:47.411Z,6.07
2019-05-01T02:08:13.467Z,5.60
2019-05-01T02:10:43.012Z,5.43
2019-05-01T02:13:09.467Z,5.40
2019-05-01T02:15:36.106Z,5.70
2019-05-01T02:18:02.746Z,6.30
2019-05-01T02:20:29.237Z,5.43
2019-05-01T02:22:55.319Z,4.83
2019-05-01T02:25:22.669Z,4.90
2019-05-01T02:27:50.663Z,5.00
2019-05-01T02:30:18.643Z,5.27
2019-05-01T02:32:46.664Z,5.87
2019-05-01T02:35:15.040Z,5.80
2019-05-01T02:37:44.900Z,5.70
2019-05-01T02:40:38.740Z,5.20
2019-05-01T02:43:08.128Z,5.70
2019-05-01T02:45:37.742Z,4.70
2019-05-01T02:48:05.891Z,5.23
2019-05-01T02:50:35.615Z,5.30
2019-05-01T02:53:02.383Z,4.83
2019-05-01T02:55:32.135Z,5.00
2019-05-01T02:58:00.140Z,5.17
2019-05-01T03:00:28.205Z,5.53
2019-05-01T03:02:54.668Z,6.20
2019-05-01T03:05:21.221Z,5.80
2019-05-01T03:07:47.640Z,4.97
2019-05-01T03:10:15.000Z,5.07
2019-05-01T03:12:44.879Z,6.33
2019-05-01T03:15:11.996Z,5.20
2019-05-01T03:17:53.404Z,5.50
2019-05-01T03:20:29.047Z,5.10
2019-05-01T03:23:15.213Z,5.00
2019-05-01T03:25:41.833Z,5.03
2019-05-01T03:28:08.476Z,6.20
2019-05-01T03:30:34.920Z,5.70
2019-05-01T03:33:03.638Z,5.17
2019-05-01T03:35:29.831Z,5.17
2019-05-01T03:37:55.885Z,5.03
2019-05-01T03:40:22.359Z,5.03
2019-05-01T03:42:49.274Z,5.87
2019-05-01T03:45:15.804Z,5.00
2019-05-01T03:47:41.909Z,4.93
2019-05-01T03:50:08.265Z,5.23
2019-05-01T03:52:34.357Z,4.70
2019-05-01T03:55:00.435Z,5.30
2019-05-01T03:57:26.857Z,5.13
2019-05-01T03:59:54.137Z,4.77
2019-05-01T04:02:34.286Z,4.70
2019-05-01T04:04:59.568Z,4.73
2019-05-01T04:07:25.676Z,4.50
2019-05-01T04:09:52.305Z,4.70
2019-05-01T04:12:19.616Z,4.77
2019-05-01T04:14:48.099Z,5.00
2019-05-01T04:17:17.475Z,4.87
2019-05-01T04:19:44.109Z,4.70
2019-05-01T04:22:12.108Z,4.53
2019-05-01T04:24:39.159Z,3.97
2019-05-01T04:27:07.320Z,5.10
2019-05-01T04:29:44.145Z,5.80
2019-05-01T04:32:12.341Z,5.23
2019-05-01T04:34:44.384Z,4.57
2019-05-01T04:37:12.868Z,5.30
2019-05-01T04:39:39.303Z,5.20
2019-05-01T04:42:05.381Z,4.20
2019-05-01T04:44:32.241Z,5.43
2019-05-01T04:46:58.593Z,4.87
2019-05-01T04:49:26.081Z,4.40
2019-05-01T04:51:52.545Z,3.83
2019-05-01T04:54:20.264Z,5.00
2019-05-01T04:56:46.707Z,3.97
2019-05-01T04:59:14.452Z,4.30
2019-05-01T05:01:51.724Z,4.53
2019-05-01T05:04:17.876Z,4.60
2019-05-01T05:06:44.859Z,4.67
2019-05-01T05:09:11.435Z,4.97
2019-05-01T05:11:56.328Z,4.60
2019-05-01T05:14:25.816Z,4.50
2019-05-01T05:17:09.747Z,4.57
2019-05-01T05:19:36.929Z,4.40
2019-05-01T05:22:03.020Z,4.60
2019-05-01T05:24:29.759Z,4.87
2019-05-01T05:26:58.259Z,4.23
2019-05-01T05:29:26.099Z,3.97
2019-05-01T05:31:55.152Z,3.90
2019-05-01T05:34:25.112Z,3.87
2019-05-01T05:36:55.331Z,4.20
2019-05-01T05:39:25.875Z,5.27
2019-05-01T05:41:54.332Z,4.30
2019-05-01T05:44:22.933Z,4.40
2019-05-01T05:46:49.275Z,4.93
2019-05-01T05:49:15.792Z,4.53
2019-05-01T05:51:49.000Z,4.37
2019-05-01T05:54:37.325Z,5.00
2019-05-01T05:57:07.583Z,4.27
2019-05-01T05:59:48.521Z,4.33
2019-05-01T06:02:32.464Z,4.57
2019-05-01T06:05:03.856Z,6.23
2019-05-01T06:07:38.007Z,5.70
2019-05-01T06:10:09.063Z,5.63
2019-05-01T06:12:41.735Z,4.70
2019-05-01T06:15:10.167Z,4.47
2019-05-01T06:17:44.256Z,3.70
2019-05-01T06:20:16.583Z,4.90
2019-05-01T06:23:04.635Z,4.87
2019-05-01T06:25:35.172Z,4.40
2019-05-01T06:28:02.557Z,4.10
2019-05-01T06:30:29.907Z,4.30
2019-05-01T06:32:56.359Z,4.43
2019-05-01T06:35:24.011Z,5.30
2019-05-01T06:38:01.993Z,4.20
2019-05-01T06:40:38.341Z,4.97
2019-05-01T06:43:10.101Z,3.90
2019-05-01T06:45:38.475Z,3.90
2019-05-01T06:48:06.432Z,4.63
2019-05-01T06:50:42.953Z,4.10
2019-05-01T06:53:11.052Z,4.30
2019-05-01T06:55:37.644Z,4.07
2019-05-01T06:58:05.198Z,4.47
2019-05-01T07:00:31.255Z,4.40
2019-05-01T07:02:59.839Z,3.60
2019-05-01T07:05:27.297Z,4.00
2019-05-01T07:07:56.127Z,3.80
2019-05-01T07:10:31.797Z,4.30
2019-05-01T07:12:55.040Z,4.33
2019-05-01T07:15:21.823Z,4.33
2019-05-01T07:17:51.072Z,4.03
2019-05-01T07:20:19.026Z,4.30
2019-05-01T07:22:47.008Z,3.83
2019-05-01T07:25:14.363Z,4.67
2019-05-01T07:27:40.511Z,4.10
2019-05-01T07:30:15.958Z,3.80
2019-05-01T07:32:42.814Z,3.93
2019-05-01T07:35:10.083Z,4.53
2019-05-01T07:37:37.797Z,4.80
2019-05-01T07:40:06.271Z,4.50
2019-05-01T07:42:35.671Z,3.67
2019-05-01T07:45:22.311Z,3.90
2019-05-01T07:47:51.243Z,3.53
2019-05-01T07:50:18.296Z,3.33
2019-05-01T07:52:47.754Z,4.23
2019-05-01T07:55:20.110Z,4.10
2019-05-01T07:57:48.876Z,4.30
2019-05-01T08:00:23.000Z,3.90
2019-05-01T08:02:49.048Z,4.30
2019-05-01T08:05:15.131Z,4.00
2019-05-01T08:07:41.552Z,3.90
2019-05-01T08:10:08.267Z,3.90
2019-05-01T08:12:34.357Z,3.67
2019-05-01T08:15:00.660Z,3.90
2019-05-01T08:17:28.617Z,3.70
2019-05-01T08:19:56.903Z,3.93
2019-05-01T08:22:24.859Z,4.10
2019-05-01T08:24:53.913Z,3.30
2019-05-01T08:27:23.880Z,3.57
2019-05-01T08:29:54.640Z,4.20
2019-05-01T08:32:28.951Z,3.63
2019-05-01T08:35:00.625Z,2.90
2019-05-01T08:37:27.167Z,3.27
2019-05-01T08:39:53.839Z,3.60
2019-05-01T08:42:19.928Z,3.87
2019-05-01T08:44:59.861Z,3.93
2019-05-01T08:47:27.810Z,3.60
2019-05-01T08:50:02.024Z,3.77
2019-05-01T08:52:28.755Z,3.80
2019-05-01T08:54:54.995Z,3.60
2019-05-01T08:57:21.831Z,3.10
2019-05-01T08:59:48.032Z,3.70
2019-05-01T09:02:15.356Z,3.80
2019-05-01T09:04:41.447Z,3.87
2019-05-01T09:07:07.593Z,3.10
2019-05-01T09:09:33.767Z,3.80
2019-05-01T09:12:00.397Z,4.00
2019-05-01T09:14:29.938Z,3.70
2019-05-01T09:16:54.716Z,3.47
2019-05-01T09:19:20.773Z,3.10
2019-05-01T09:21:47.219Z,3.50
2019-05-01T09:24:13.601Z,4.17
2019-05-01T09:26:58.045Z,3.83
2019-05-01T09:29:26.127Z,3.03
2019-05-01T09:31:53.080Z,3.20
2019-05-01T09:34:21.104Z,3.33
2019-05-01T09:36:49.119Z,2.60
2019-05-01T09:39:17.387Z,3.17
2019-05-01T09:41:47.414Z,3.40
2019-05-01T09:44:12.187Z,3.03
2019-05-01T09:46:39.285Z,2.97
2019-05-01T09:49:05.439Z,3.27
2019-05-01T09:51:34.864Z,3.20
2019-05-01T09:54:05.739Z,2.97
2019-05-01T09:56:31.091Z,3.53
2019-05-01T09:58:57.228Z,3.03
2019-05-01T10:01:24.513Z,3.50
2019-05-01T10:03:54.690Z,3.40
2019-05-01T10:06:19.888Z,3.57
2019-05-01T10:08:46.244Z,3.43
2019-05-01T10:11:12.293Z,3.53
2019-05-01T10:13:38.719Z,3.20
2019-05-01T10:16:04.769Z,3.30
2019-05-01T10:18:31.467Z,3.33
2019-05-01T10:20:57.891Z,3.33
2019-05-01T10:23:23.970Z,3.53
2019-05-01T10:25:52.291Z,3.30
2019-05-01T10:28:32.254Z,3.23
2019-05-01T10:31:11.961Z,3.40
2019-05-01T10:33:45.602Z,2.77
2019-05-01T10:36:25.483Z,2.80
2019-05-01T10:38:52.275Z,4.17
2019-05-01T10:41:18.324Z,3.03
2019-05-01T10:43:44.371Z,3.50
2019-05-01T10:46:11.060Z,3.40
2019-05-01T10:48:37.106Z,3.87
2019-05-01T10:51:03.188Z,2.80
2019-05-01T10:53:29.239Z,3.27
2019-05-01T10:55:55.325Z,3.07
2019-05-01T10:58:21.375Z,3.23
2019-05-01T11:00:49.651Z,3.17
2019-05-01T11:03:15.806Z,3.20
2019-05-01T11:05:54.737Z,3.60
2019-05-01T11:08:10.592Z,3.90
2019-05-01T11:10:37.011Z,3.60
2019-05-01T11:13:03.862Z,3.17
2019-05-01T11:15:30.317Z,3.63
2019-05-01T11:17:56.371Z,3.53
2019-05-01T11:20:22.420Z,3.20
2019-05-01T11:22:48.504Z,3.10
2019-05-01T11:25:16.555Z,3.40
2019-05-01T11:27:43.006Z,3.10
2019-05-01T11:30:09.624Z,3.17
2019-05-01T11:32:43.188Z,3.00
2019-05-01T11:35:28.183Z,3.23
2019-05-01T11:37:56.172Z,3.20
2019-05-01T11:40:24.124Z,2.90
2019-05-01T11:42:50.552Z,3.30
2019-05-01T11:45:18.100Z,3.53
2019-05-01T11:47:44.839Z,3.00
2019-05-01T11:50:10.892Z,3.20
2019-05-01T11:52:37.299Z,3.70
2019-05-01T11:55:05.264Z,3.57
2019-05-01T11:57:31.791Z,3.57
2019-05-01T11:59:57.893Z,3.07
2019-05-01T12:02:24.009Z,3.73
2019-05-01T12:04:50.428Z,3.23
2019-05-01T12:07:16.614Z,3.23
2019-05-01T12:09:42.664Z,3.77
2019-05-01T12:12:11.248Z,3.40
2019-05-01T12:14:37.357Z,3.47
2019-05-01T12:17:14.164Z,2.80
2019-05-01T12:19:40.243Z,2.87
2019-05-01T12:22:06.692Z,2.93
2019-05-01T12:24:33.100Z,3.20
2019-05-01T12:26:59.152Z,3.37
2019-05-01T12:29:25.619Z,3.83
2019-05-01T12:31:51.984Z,3.47
2019-05-01T12:34:18.321Z,3.17
2019-05-01T12:36:46.591Z,3.03
2019-05-01T12:39:14.873Z,3.37
2019-05-01T12:41:42.824Z,3.53
2019-05-01T12:44:09.164Z,3.30
2019-05-01T12:46:37.447Z,3.30
2019-05-01T12:49:03.501Z,3.33
2019-05-01T12:51:29.676Z,3.50
2019-05-01T12:53:57.652Z,3.50
2019-05-01T12:56:30.132Z,3.40
2019-05-01T12:58:56.547Z,3.77
2019-05-01T13:01:22.609Z,3.10
2019-05-01T13:03:48.719Z,3.07
2019-05-01T13:06:15.137Z,3.60
2019-05-01T13:08:41.477Z,3.33
2019-05-01T13:11:07.892Z,3.20
2019-05-01T13:13:34.308Z,3.23
2019-05-01T13:16:00.392Z,2.97
2019-05-01T13:18:26.443Z,3.00
2019-05-01T13:20:52.815Z,3.67
2019-05-01T13:23:19.148Z,3.30
2019-05-01T13:25:46.604Z,2.80
2019-05-01T13:28:17.660Z,3.50
2019-05-01T13:30:45.924Z,3.80
2019-05-01T13:33:12.347Z,3.60
2019-05-01T13:35:38.680Z,2.90
2019-05-01T13:38:04.934Z,3.50
2019-05-01T13:40:31.021Z,3.60
2019-05-01T13:42:57.776Z,3.07
2019-05-01T13:45:23.818Z,3.27
2019-05-01T13:47:49.953Z,3.30
2019-05-01T13:50:17.982Z,3.80
2019-05-01T13:52:44.031Z,3.07
2019-05-01T13:55:12.877Z,3.20
2019-05-01T13:57:39.418Z,3.30
2019-05-01T14:00:06.703Z,3.50
2019-05-01T14:02:33.428Z,2.97
2019-05-01T14:04:59.511Z,3.33
2019-05-01T14:07:25.696Z,3.30
2019-05-01T14:09:51.754Z,3.00
2019-05-01T14:12:17.901Z,3.30
2019-05-01T14:14:44.024Z,3.37
2019-05-01T14:17:10.437Z,2.80
2019-05-01T14:19:38.424Z,3.37
2019-05-01T14:22:24.754Z,2.80
2019-05-01T14:24:55.249Z,3.20
2019-05-01T14:27:21.331Z,3.10
2019-05-01T14:29:47.384Z,3.23
2019-05-01T14:32:14.065Z,3.23
2019-05-01T14:34:40.159Z,2.90
2019-05-01T14:37:06.211Z,3.33
2019-05-01T14:39:32.283Z,3.37
2019-05-01T14:41:58.376Z,3.70
2019-05-01T14:44:36.307Z,3.20
2019-05-01T14:46:52.796Z,4.07
2019-05-01T14:49:19.091Z,3.70
2019-05-01T14:51:45.426Z,2.97
2019-05-01T14:54:11.858Z,3.27
2019-05-01T14:56:37.903Z,3.10
2019-05-01T14:59:03.956Z,3.83
2019-05-01T15:01:30.052Z,3.60
2019-05-01T15:03:56.092Z,3.30
2019-05-01T15:06:22.483Z,3.70
2019-05-01T15:08:48.808Z,3.20
2019-05-01T15:11:15.136Z,3.30
2019-05-01T15:13:48.916Z,3.33
2019-05-01T15:16:16.968Z,3.27
2019-05-01T15:18:59.720Z,3.37
2019-05-01T15:21:26.059Z,3.27
2019-05-01T15:23:53.837Z,3.40
2019-05-01T15:26:20.355Z,3.60
2019-05-01T15:28:46.447Z,3.30
2019-05-01T15:31:12.919Z,3.60
2019-05-01T15:33:39.243Z,3.00
2019-05-01T15:36:05.985Z,3.10
2019-05-01T15:38:32.417Z,3.23
2019-05-01T15:41:03.451Z,3.33
2019-05-01T15:43:34.596Z,3.23
2019-05-01T15:46:00.927Z,3.03
2019-05-01T15:48:27.256Z,3.30
2019-05-01T15:50:53.456Z,3.63
2019-05-01T15:53:19.919Z,3.17
2019-05-01T15:55:46.619Z,3.00
2019-05-01T15:58:13.015Z,3.00
2019-05-01T16:00:39.419Z,3.17
2019-05-01T16:03:05.468Z,3.53
2019-05-01T16:05:32.180Z,3.50
2019-05-01T16:08:09.216Z,3.40
2019-05-01T16:10:28.139Z,3.37
2019-05-01T16:12:56.280Z,3.50
2019-05-01T16:15:28.171Z,2.90
2019-05-01T16:17:54.269Z,3.60
2019-05-01T16:20:20.325Z,3.50
2019-05-01T16:22:47.031Z,3.83
2019-05-01T16:25:14.887Z,2.90
2019-05-01T16:27:40.932Z,3.10
2019-05-01T16:30:09.001Z,3.17
2019-05-01T16:32:35.043Z,3.53
2019-05-01T16:35:01.125Z,2.90
2019-05-01T16:37:27.971Z,3.57
2019-05-01T16:39:55.925Z,3.60
2019-05-01T16:42:23.203Z,3.63
2019-05-01T16:44:49.535Z,3.50
2019-05-01T16:47:15.620Z,3.30
2019-05-01T16:49:41.880Z,2.93
2019-05-01T16:52:09.140Z,3.37
2019-05-01T16:54:35.468Z,3.23
2019-05-01T16:57:01.921Z,3.70
2019-05-01T16:59:28.340Z,3.13
2019-05-01T17:01:56.322Z,3.17
2019-05-01T17:04:41.369Z,2.90
2019-05-01T17:07:27.979Z,3.90
2019-05-01T17:10:14.486Z,3.50
2019-05-01T17:12:52.072Z,3.30
2019-05-01T17:15:20.327Z,2.93
2019-05-01T17:17:46.742Z,3.47
2019-05-01T17:20:14.543Z,4.03
2019-05-01T17:22:41.293Z,2.53
2019-05-01T17:25:08.435Z,3.47
2019-05-01T17:27:34.519Z,3.60
2019-05-01T17:30:00.887Z,3.40
2019-05-01T17:32:27.335Z,2.90
2019-05-01T17:34:53.388Z,3.70
2019-05-01T17:37:19.440Z,3.50
2019-05-01T17:39:46.411Z,3.27
2019-05-01T17:42:12.744Z,3.50
2019-05-01T17:44:39.633Z,3.53
2019-05-01T17:47:06.463Z,3.23
2019-05-01T17:49:32.507Z,3.37
2019-05-01T17:51:58.591Z,3.20
2019-05-01T17:54:24.906Z,3.57
2019-05-01T17:56:53.877Z,3.33
2019-05-01T17:59:19.303Z,3.20
2019-05-01T18:01:55.912Z,3.60
2019-05-01T18:04:24.147Z,4.20
2019-05-01T18:06:51.860Z,2.80
2019-05-01T18:09:18.411Z,3.30
2019-05-01T18:11:47.402Z,3.47
2019-05-01T18:14:12.820Z,3.60
2019-05-01T18:16:39.009Z,3.17
2019-05-01T18:19:09.758Z,3.60
2019-05-01T18:21:35.215Z,3.63
2019-05-01T18:24:23.225Z,3.87
2019-05-01T18:26:53.121Z,2.90
2019-05-01T18:29:23.866Z,3.33
2019-05-01T18:31:50.540Z,3.50
2019-05-01T18:34:16.867Z,3.77
2019-05-01T18:36:47.695Z,3.23
2019-05-01T18:39:17.132Z,3.10
2019-05-01T18:41:52.484Z,3.20
2019-05-01T18:44:19.098Z,3.60
2019-05-01T18:46:45.516Z,3.00
2019-05-01T18:49:11.848Z,3.20
2019-05-01T18:51:40.661Z,3.37
2019-05-01T18:54:05.877Z,3.60
2019-05-01T18:56:31.929Z,3.33
2019-05-01T18:58:58.347Z,3.20
2019-05-01T19:01:25.133Z,3.73
2019-05-01T19:03:51.221Z,4.47
2019-05-01T19:06:17.591Z,3.90
2019-05-01T19:08:43.680Z,3.80
2019-05-01T19:11:13.039Z,3.27
2019-05-01T19:13:39.479Z,3.50
2019-05-01T19:16:08.102Z,3.70
2019-05-01T19:18:35.025Z,3.67
2019-05-01T19:21:01.803Z,3.40
2019-05-01T19:23:29.867Z,4.27
2019-05-01T19:26:03.379Z,3.63
2019-05-01T19:31:21.409Z,4.20
2019-05-01T19:33:47.909Z,3.93
2019-05-01T19:36:14.317Z,3.70
2019-05-01T19:38:40.465Z,3.90
2019-05-01T19:41:08.930Z,3.73
2019-05-01T19:43:35.774Z,3.87
2019-05-01T19:46:04.537Z,3.80
2019-05-01T19:48:30.641Z,3.40
2019-05-01T19:50:56.711Z,3.70
2019-05-01T19:53:22.861Z,3.90
2019-05-01T19:55:49.308Z,3.97
2019-05-01T19:58:15.716Z,3.97
2019-05-01T20:00:47.591Z,3.87
2019-05-01T20:03:13.642Z,4.93
2019-05-01T20:05:41.716Z,4.40
2019-05-01T20:08:08.107Z,4.07
2019-05-01T20:10:34.491Z,4.50
2019-05-01T20:13:00.594Z,3.90
2019-05-01T20:15:27.460Z,4.30
2019-05-01T20:17:53.511Z,4.27
2019-05-01T20:20:20.219Z,4.00
2019-05-01T20:22:48.220Z,4.30
2019-05-01T20:25:14.732Z,4.27
2019-05-01T20:27:45.473Z,4.10
2019-05-01T20:30:10.972Z,4.07
2019-05-01T20:32:37.029Z,4.33
2019-05-01T20:35:05.274Z,4.50
2019-05-01T20:37:31.348Z,4.87
2019-05-01T20:40:10.438Z,4.00
2019-05-01T20:42:25.776Z,5.00
2019-05-01T20:45:03.938Z,4.40
2019-05-01T20:47:34.429Z,4.30
2019-05-01T20:49:48.051Z,4.60
2019-05-01T20:52:14.140Z,4.77
2019-05-01T20:54:40.192Z,4.63
2019-05-01T20:57:21.376Z,4.23
2019-05-01T20:59:48.328Z,5.00
2019-05-01T21:02:16.620Z,4.73
2019-05-01T21:04:44.599Z,4.40
2019-05-01T21:07:15.703Z,4.37
2019-05-01T21:09:47.758Z,4.93
2019-05-01T21:12:11.344Z,4.70
2019-05-01T21:14:37.795Z,4.50
2019-05-01T21:17:03.849Z,4.80
2019-05-01T21:19:32.487Z,4.83
2019-05-01T21:21:58.205Z,4.40
2019-05-01T21:24:24.939Z,4.57
2019-05-01T21:26:51.040Z,5.17
2019-05-01T21:29:17.088Z,4.80
2019-05-01T21:31:44.119Z,5.00
2019-05-01T21:34:10.819Z,5.10
2019-05-01T21:36:36.936Z,4.67
2019-05-01T21:39:05.784Z,4.30
2019-05-01T21:41:32.896Z,5.20
2019-05-01T21:43:59.572Z,5.33
2019-05-01T21:46:25.898Z,5.10
2019-05-01T21:48:53.583Z,5.33
2019-05-01T21:51:19.832Z,5.87
2019-05-01T21:53:46.560Z,5.60
2019-05-01T21:56:12.768Z,4.80
2019-05-01T21:58:39.494Z,4.80
2019-05-01T22:01:07.671Z,4.90
2019-05-01T22:03:33.723Z,4.90
2019-05-01T22:05:59.777Z,5.00
2019-05-01T22:08:26.958Z,4.40
2019-05-01T22:10:53.041Z,5.60
2019-05-01T22:13:20.373Z,4.70
2019-05-01T22:15:58.525Z,4.90
2019-05-01T22:18:30.803Z,5.03
2019-05-01T22:20:59.120Z,5.17
2019-05-01T22:23:27.071Z,4.93
2019-05-01T22:25:58.132Z,5.27
2019-05-01T22:28:32.488Z,5.00
2019-05-01T22:31:21.818Z,4.97
2019-05-01T22:33:47.503Z,4.63
2019-05-01T22:36:13.597Z,5.03
2019-05-01T22:38:39.746Z,4.47
2019-05-01T22:41:07.699Z,5.03
2019-05-01T22:43:33.784Z,5.00
2019-05-01T22:46:01.446Z,4.13
2019-05-01T22:48:28.998Z,5.00
2019-05-01T22:50:57.239Z,4.47
2019-05-01T22:53:23.572Z,4.93
2019-05-01T22:55:50.010Z,5.30
2019-05-01T22:58:16.438Z,5.13
2019-05-01T23:00:47.480Z,4.87
2019-05-01T23:03:16.571Z,4.60
2019-05-01T23:05:42.764Z,5.73
2019-05-01T23:08:08.844Z,5.20
2019-05-01T23:10:35.768Z,4.57
2019-05-01T23:13:01.852Z,5.00
2019-05-01T23:15:30.783Z,5.23
2019-05-01T23:17:56.832Z,5.67
2019-05-01T23:20:23.515Z,5.23
2019-05-01T23:22:50.284Z,5.67
2019-05-01T23:25:16.372Z,5.27
2019-05-01T23:27:43.143Z,5.37
2019-05-01T23:30:12.214Z,4.43
2019-05-01T23:32:38.660Z,5.27
2019-05-01T23:35:06.216Z,5.10
2019-05-01T23:37:32.872Z,4.80
2019-05-01T23:39:58.920Z,5.20
2019-05-01T23:42:24.995Z,5.03
2019-05-01T23:44:51.044Z,5.33
2019-05-01T23:47:17.499Z,5.20
2019-05-01T23:49:47.833Z,5.20
2019-05-01T23:52:11.860Z,5.00
2019-05-01T23:54:37.948Z,4.57
2019-05-01T23:57:05.456Z,4.80
2019-05-01T23:59:32.608Z,5.10
